sensor_id;sensor_type;location;lat;lon;timestamp;P1;durP1;ratioP1;P2;durP2;ratioP2
21539;SDS011;10931;52.164;5.518;2023-03-23T00:01:47;0.80;;;0.50;;
21539;SDS011;10931;52.164;5.518;2023-03-23T00:04:19;0.68;;;0.40;;
21539;SDS011;10931;52.164;5.518;2023-03-23T00:06:45;0.88;;;0.60;;
21539;SDS011;10931;52.164;5.518;2023-03-23T00:09:12;1.10;;;0.60;;
21539;SDS011;10931;52.164;5.518;2023-03-23T00:11:40;1.23;;;0.57;;
21539;SDS011;10931;52.164;5.518;2023-03-23T00:14:06;0.90;;;0.40;;
21539;SDS011;10931;52.164;5.518;2023-03-23T00:16:37;1.17;;;0.60;;
21539;SDS011;10931;52.164;5.518;2023-03-23T00:19:07;0.68;;;0.50;;
21539;SDS011;10931;52.164;5.518;2023-03-23T00:21:43;0.32;;;0.30;;
21539;SDS011;10931;52.164;5.518;2023-03-23T00:24:18;1.17;;;0.68;;
21539;SDS011;10931;52.164;5.518;2023-03-23T00:26:47;1.25;;;0.60;;
21539;SDS011;10931;52.164;5.518;2023-03-23T00:29:21;1.90;;;0.65;;
21539;SDS011;10931;52.164;5.518;2023-03-23T00:31:48;1.90;;;0.70;;
21539;SDS011;10931;52.164;5.518;2023-03-23T00:34:17;1.50;;;0.60;;
21539;SDS011;10931;52.164;5.518;2023-03-23T00:36:51;0.50;;;0.40;;
21539;SDS011;10931;52.164;5.518;2023-03-23T00:39:21;0.80;;;0.60;;
21539;SDS011;10931;52.164;5.518;2023-03-23T00:41:53;0.77;;;0.65;;
21539;SDS011;10931;52.164;5.518;2023-03-23T00:44:26;2.40;;;0.60;;
21539;SDS011;10931;52.164;5.518;2023-03-23T00:46:56;0.77;;;0.40;;
21539;SDS011;10931;52.164;5.518;2023-03-23T00:49:23;0.77;;;0.50;;
21539;SDS011;10931;52.164;5.518;2023-03-23T00:51:53;0.85;;;0.50;;
21539;SDS011;10931;52.164;5.518;2023-03-23T00:54:23;1.65;;;0.70;;
21539;SDS011;10931;52.164;5.518;2023-03-23T00:56:50;1.48;;;0.60;;
21539;SDS011;10931;52.164;5.518;2023-03-23T00:59:17;0.43;;;0.30;;
21539;SDS011;10931;52.164;5.518;2023-03-23T01:01:43;0.60;;;0.50;;
21539;SDS011;10931;52.164;5.518;2023-03-23T01:04:09;1.48;;;0.60;;
21539;SDS011;10931;52.164;5.518;2023-03-23T01:06:38;0.50;;;0.38;;
21539;SDS011;10931;52.164;5.518;2023-03-23T01:09:17;1.77;;;0.60;;
21539;SDS011;10931;52.164;5.518;2023-03-23T01:11:46;1.15;;;0.50;;
21539;SDS011;10931;52.164;5.518;2023-03-23T01:14:13;1.23;;;0.70;;
21539;SDS011;10931;52.164;5.518;2023-03-23T01:16:40;0.80;;;0.60;;
21539;SDS011;10931;52.164;5.518;2023-03-23T01:19:06;0.90;;;0.40;;
21539;SDS011;10931;52.164;5.518;2023-03-23T01:21:51;0.65;;;0.45;;
21539;SDS011;10931;52.164;5.518;2023-03-23T01:24:17;1.48;;;0.60;;
21539;SDS011;10931;52.164;5.518;2023-03-23T01:26:42;1.55;;;0.60;;
21539;SDS011;10931;52.164;5.518;2023-03-23T01:29:08;1.17;;;0.63;;
21539;SDS011;10931;52.164;5.518;2023-03-23T01:31:34;1.05;;;0.60;;
21539;SDS011;10931;52.164;5.518;2023-03-23T01:34:04;0.50;;;0.40;;
21539;SDS011;10931;52.164;5.518;2023-03-23T01:36:31;0.55;;;0.40;;
21539;SDS011;10931;52.164;5.518;2023-03-23T01:38:58;0.63;;;0.32;;
21539;SDS011;10931;52.164;5.518;2023-03-23T01:41:26;0.63;;;0.50;;
21539;SDS011;10931;52.164;5.518;2023-03-23T01:46:43;1.48;;;0.50;;
21539;SDS011;10931;52.164;5.518;2023-03-23T01:49:13;0.60;;;0.50;;
21539;SDS011;10931;52.164;5.518;2023-03-23T01:51:45;0.90;;;0.43;;
21539;SDS011;10931;52.164;5.518;2023-03-23T01:59:39;0.98;;;0.50;;
21539;SDS011;10931;52.164;5.518;2023-03-23T02:02:10;1.27;;;0.50;;
21539;SDS011;10931;52.164;5.518;2023-03-23T02:04:37;0.88;;;0.47;;
21539;SDS011;10931;52.164;5.518;2023-03-23T02:07:07;0.40;;;0.40;;
21539;SDS011;10931;52.164;5.518;2023-03-23T02:09:33;0.65;;;0.50;;
21539;SDS011;10931;52.164;5.518;2023-03-23T02:12:06;0.52;;;0.50;;
21539;SDS011;10931;52.164;5.518;2023-03-23T02:14:32;0.52;;;0.40;;
21539;SDS011;10931;52.164;5.518;2023-03-23T02:23:19;1.20;;;0.50;;
21539;SDS011;10931;52.164;5.518;2023-03-23T02:31:00;0.60;;;0.43;;
21539;SDS011;10931;52.164;5.518;2023-03-23T02:33:44;0.65;;;0.50;;
21539;SDS011;10931;52.164;5.518;2023-03-23T02:39:43;1.23;;;0.68;;
21539;SDS011;10931;52.164;5.518;2023-03-23T02:42:36;0.88;;;0.47;;
21539;SDS011;10931;52.164;5.518;2023-03-23T02:45:05;0.73;;;0.43;;
21539;SDS011;10931;52.164;5.518;2023-03-23T02:47:33;1.42;;;0.55;;
21539;SDS011;10931;52.164;5.518;2023-03-23T02:52:56;0.40;;;0.30;;
21539;SDS011;10931;52.164;5.518;2023-03-23T02:55:24;0.60;;;0.40;;
21539;SDS011;10931;52.164;5.518;2023-03-23T02:57:54;0.95;;;0.40;;
21539;SDS011;10931;52.164;5.518;2023-03-23T03:00:20;0.65;;;0.40;;
21539;SDS011;10931;52.164;5.518;2023-03-23T03:02:50;0.73;;;0.55;;
21539;SDS011;10931;52.164;5.518;2023-03-23T03:13:51;0.40;;;0.40;;
21539;SDS011;10931;52.164;5.518;2023-03-23T03:16:28;0.85;;;0.35;;
21539;SDS011;10931;52.164;5.518;2023-03-23T03:19:34;0.43;;;0.43;;
21539;SDS011;10931;52.164;5.518;2023-03-23T03:22:17;1.38;;;0.63;;
21539;SDS011;10931;52.164;5.518;2023-03-23T03:24:46;1.48;;;0.50;;
21539;SDS011;10931;52.164;5.518;2023-03-23T03:27:24;0.50;;;0.40;;
21539;SDS011;10931;52.164;5.518;2023-03-23T03:30:01;0.38;;;0.38;;
21539;SDS011;10931;52.164;5.518;2023-03-23T03:32:31;0.98;;;0.70;;
21539;SDS011;10931;52.164;5.518;2023-03-23T03:35:11;1.55;;;0.50;;
21539;SDS011;10931;52.164;5.518;2023-03-23T03:37:40;1.05;;;0.60;;
21539;SDS011;10931;52.164;5.518;2023-03-23T03:40:08;0.43;;;0.30;;
21539;SDS011;10931;52.164;5.518;2023-03-23T03:42:45;0.68;;;0.40;;
21539;SDS011;10931;52.164;5.518;2023-03-23T03:45:13;0.82;;;0.50;;
21539;SDS011;10931;52.164;5.518;2023-03-23T03:47:42;0.55;;;0.40;;
21539;SDS011;10931;52.164;5.518;2023-03-23T03:50:22;0.85;;;0.50;;
21539;SDS011;10931;52.164;5.518;2023-03-23T03:52:56;1.17;;;0.45;;
21539;SDS011;10931;52.164;5.518;2023-03-23T03:55:25;0.30;;;0.30;;
21539;SDS011;10931;52.164;5.518;2023-03-23T03:57:53;0.40;;;0.40;;
21539;SDS011;10931;52.164;5.518;2023-03-23T04:00:22;0.75;;;0.40;;
21539;SDS011;10931;52.164;5.518;2023-03-23T04:02:51;0.98;;;0.52;;
21539;SDS011;10931;52.164;5.518;2023-03-23T04:05:19;0.68;;;0.50;;
21539;SDS011;10931;52.164;5.518;2023-03-23T04:07:46;1.63;;;0.50;;
21539;SDS011;10931;52.164;5.518;2023-03-23T04:10:15;1.17;;;0.50;;
21539;SDS011;10931;52.164;5.518;2023-03-23T04:12:45;0.60;;;0.43;;
21539;SDS011;10931;52.164;5.518;2023-03-23T04:15:14;0.57;;;0.40;;
21539;SDS011;10931;52.164;5.518;2023-03-23T04:17:40;1.52;;;0.38;;
21539;SDS011;10931;52.164;5.518;2023-03-23T04:20:07;0.88;;;0.50;;
21539;SDS011;10931;52.164;5.518;2023-03-23T04:22:42;0.75;;;0.30;;
21539;SDS011;10931;52.164;5.518;2023-03-23T04:25:10;0.90;;;0.40;;
21539;SDS011;10931;52.164;5.518;2023-03-23T04:27:38;0.98;;;0.47;;
21539;SDS011;10931;52.164;5.518;2023-03-23T04:30:10;1.42;;;0.40;;
21539;SDS011;10931;52.164;5.518;2023-03-23T04:32:40;0.60;;;0.43;;
21539;SDS011;10931;52.164;5.518;2023-03-23T04:35:07;0.35;;;0.30;;
21539;SDS011;10931;52.164;5.518;2023-03-23T04:37:36;0.63;;;0.30;;
21539;SDS011;10931;52.164;5.518;2023-03-23T04:40:05;0.28;;;0.28;;
21539;SDS011;10931;52.164;5.518;2023-03-23T04:42:38;1.58;;;0.50;;
21539;SDS011;10931;52.164;5.518;2023-03-23T04:45:06;0.40;;;0.40;;
21539;SDS011;10931;52.164;5.518;2023-03-23T04:47:34;0.60;;;0.30;;
21539;SDS011;10931;52.164;5.518;2023-03-23T04:50:14;0.60;;;0.40;;
21539;SDS011;10931;52.164;5.518;2023-03-23T04:52:40;1.25;;;0.40;;
21539;SDS011;10931;52.164;5.518;2023-03-23T04:55:09;0.40;;;0.30;;
21539;SDS011;10931;52.164;5.518;2023-03-23T04:57:36;1.00;;;0.50;;
21539;SDS011;10931;52.164;5.518;2023-03-23T05:00:03;0.47;;;0.40;;
21539;SDS011;10931;52.164;5.518;2023-03-23T05:02:55;1.55;;;0.40;;
21539;SDS011;10931;52.164;5.518;2023-03-23T05:05:27;1.13;;;0.40;;
21539;SDS011;10931;52.164;5.518;2023-03-23T05:07:55;0.60;;;0.30;;
21539;SDS011;10931;52.164;5.518;2023-03-23T05:10:31;0.30;;;0.30;;
21539;SDS011;10931;52.164;5.518;2023-03-23T05:13:02;0.75;;;0.30;;
21539;SDS011;10931;52.164;5.518;2023-03-23T05:15:28;0.28;;;0.28;;
21539;SDS011;10931;52.164;5.518;2023-03-23T05:17:56;0.82;;;0.28;;
21539;SDS011;10931;52.164;5.518;2023-03-23T05:20:22;1.17;;;0.38;;
21539;SDS011;10931;52.164;5.518;2023-03-23T05:22:50;0.77;;;0.30;;
21539;SDS011;10931;52.164;5.518;2023-03-23T05:25:22;0.95;;;0.45;;
21539;SDS011;10931;52.164;5.518;2023-03-23T05:27:57;0.70;;;0.30;;
21539;SDS011;10931;52.164;5.518;2023-03-23T05:30:31;1.70;;;0.50;;
21539;SDS011;10931;52.164;5.518;2023-03-23T05:32:56;1.08;;;0.40;;
21539;SDS011;10931;52.164;5.518;2023-03-23T05:35:22;0.95;;;0.40;;
21539;SDS011;10931;52.164;5.518;2023-03-23T05:37:55;1.05;;;0.38;;
21539;SDS011;10931;52.164;5.518;2023-03-23T05:40:27;0.40;;;0.30;;
21539;SDS011;10931;52.164;5.518;2023-03-23T05:42:55;1.13;;;0.30;;
21539;SDS011;10931;52.164;5.518;2023-03-23T05:45:23;0.50;;;0.22;;
21539;SDS011;10931;52.164;5.518;2023-03-23T05:47:54;0.63;;;0.40;;
21539;SDS011;10931;52.164;5.518;2023-03-23T05:50:23;0.93;;;0.60;;
21539;SDS011;10931;52.164;5.518;2023-03-23T05:52:48;0.60;;;0.40;;
21539;SDS011;10931;52.164;5.518;2023-03-23T05:55:15;0.40;;;0.30;;
21539;SDS011;10931;52.164;5.518;2023-03-23T05:57:41;0.43;;;0.30;;
21539;SDS011;10931;52.164;5.518;2023-03-23T06:00:07;1.13;;;0.32;;
21539;SDS011;10931;52.164;5.518;2023-03-23T06:02:40;1.27;;;0.30;;
21539;SDS011;10931;52.164;5.518;2023-03-23T06:05:09;2.67;;;0.50;;
21539;SDS011;10931;52.164;5.518;2023-03-23T06:08:00;0.98;;;0.38;;
21539;SDS011;10931;52.164;5.518;2023-03-23T06:10:27;0.68;;;0.50;;
21539;SDS011;10931;52.164;5.518;2023-03-23T06:13:01;0.47;;;0.32;;
21539;SDS011;10931;52.164;5.518;2023-03-23T06:15:37;1.45;;;0.50;;
21539;SDS011;10931;52.164;5.518;2023-03-23T06:18:06;1.00;;;0.50;;
21539;SDS011;10931;52.164;5.518;2023-03-23T06:20:32;0.70;;;0.43;;
21539;SDS011;10931;52.164;5.518;2023-03-23T06:23:03;1.13;;;0.28;;
21539;SDS011;10931;52.164;5.518;2023-03-23T06:25:28;1.20;;;0.40;;
21539;SDS011;10931;52.164;5.518;2023-03-23T06:27:58;1.98;;;0.70;;
21539;SDS011;10931;52.164;5.518;2023-03-23T06:30:34;0.68;;;0.30;;
21539;SDS011;10931;52.164;5.518;2023-03-23T06:33:01;0.52;;;0.40;;
21539;SDS011;10931;52.164;5.518;2023-03-23T06:35:34;1.13;;;0.40;;
21539;SDS011;10931;52.164;5.518;2023-03-23T06:38:02;0.82;;;0.35;;
21539;SDS011;10931;52.164;5.518;2023-03-23T06:40:31;0.95;;;0.30;;
21539;SDS011;10931;52.164;5.518;2023-03-23T06:43:04;0.50;;;0.25;;
21539;SDS011;10931;52.164;5.518;2023-03-23T06:45:30;2.03;;;0.30;;
21539;SDS011;10931;52.164;5.518;2023-03-23T06:48:00;0.30;;;0.30;;
21539;SDS011;10931;52.164;5.518;2023-03-23T06:50:36;0.52;;;0.40;;
21539;SDS011;10931;52.164;5.518;2023-03-23T06:53:06;0.82;;;0.35;;
21539;SDS011;10931;52.164;5.518;2023-03-23T06:55:41;0.50;;;0.30;;
21539;SDS011;10931;52.164;5.518;2023-03-23T06:58:27;0.82;;;0.32;;
21539;SDS011;10931;52.164;5.518;2023-03-23T07:00:53;1.42;;;0.40;;
21539;SDS011;10931;52.164;5.518;2023-03-23T07:03:21;0.80;;;0.30;;
21539;SDS011;10931;52.164;5.518;2023-03-23T07:05:48;1.95;;;0.40;;
21539;SDS011;10931;52.164;5.518;2023-03-23T07:08:15;0.70;;;0.30;;
21539;SDS011;10931;52.164;5.518;2023-03-23T07:10:41;1.00;;;0.35;;
21539;SDS011;10931;52.164;5.518;2023-03-23T07:13:07;0.95;;;0.35;;
21539;SDS011;10931;52.164;5.518;2023-03-23T07:15:35;0.75;;;0.40;;
21539;SDS011;10931;52.164;5.518;2023-03-23T07:18:02;1.20;;;0.40;;
21539;SDS011;10931;52.164;5.518;2023-03-23T07:20:27;0.50;;;0.30;;
21539;SDS011;10931;52.164;5.518;2023-03-23T07:22:53;1.67;;;0.50;;
21539;SDS011;10931;52.164;5.518;2023-03-23T07:25:33;1.13;;;0.32;;
21539;SDS011;10931;52.164;5.518;2023-03-23T07:28:01;1.00;;;0.82;;
21539;SDS011;10931;52.164;5.518;2023-03-23T07:30:28;0.90;;;0.50;;
21539;SDS011;10931;52.164;5.518;2023-03-23T07:32:57;1.13;;;0.30;;
21539;SDS011;10931;52.164;5.518;2023-03-23T07:35:23;0.80;;;0.35;;
21539;SDS011;10931;52.164;5.518;2023-03-23T07:38:00;1.85;;;0.40;;
21539;SDS011;10931;52.164;5.518;2023-03-23T07:40:29;0.43;;;0.30;;
21539;SDS011;10931;52.164;5.518;2023-03-23T07:43:06;0.88;;;0.40;;
21539;SDS011;10931;52.164;5.518;2023-03-23T07:45:43;0.95;;;0.30;;
21539;SDS011;10931;52.164;5.518;2023-03-23T07:48:10;0.70;;;0.30;;
21539;SDS011;10931;52.164;5.518;2023-03-23T07:50:36;1.75;;;0.65;;
21539;SDS011;10931;52.164;5.518;2023-03-23T07:53:03;1.08;;;0.50;;
21539;SDS011;10931;52.164;5.518;2023-03-23T07:55:30;0.63;;;0.32;;
21539;SDS011;10931;52.164;5.518;2023-03-23T07:57:56;0.93;;;0.30;;
21539;SDS011;10931;52.164;5.518;2023-03-23T08:06:26;1.08;;;0.45;;
21539;SDS011;10931;52.164;5.518;2023-03-23T08:08:59;1.55;;;0.40;;
21539;SDS011;10931;52.164;5.518;2023-03-23T08:11:45;0.90;;;0.32;;
21539;SDS011;10931;52.164;5.518;2023-03-23T08:14:13;0.75;;;0.40;;
21539;SDS011;10931;52.164;5.518;2023-03-23T08:16:38;1.73;;;0.40;;
21539;SDS011;10931;52.164;5.518;2023-03-23T08:19:04;0.40;;;0.30;;
21539;SDS011;10931;52.164;5.518;2023-03-23T08:21:30;0.93;;;0.40;;
21539;SDS011;10931;52.164;5.518;2023-03-23T08:23:58;1.48;;;0.57;;
21539;SDS011;10931;52.164;5.518;2023-03-23T08:26:24;0.28;;;0.28;;
21539;SDS011;10931;52.164;5.518;2023-03-23T08:29:18;1.55;;;0.50;;
21539;SDS011;10931;52.164;5.518;2023-03-23T08:32:04;1.33;;;0.40;;
21539;SDS011;10931;52.164;5.518;2023-03-23T08:34:30;1.52;;;0.68;;
21539;SDS011;10931;52.164;5.518;2023-03-23T08:36:58;0.55;;;0.40;;
21539;SDS011;10931;52.164;5.518;2023-03-23T08:39:24;2.38;;;0.60;;
21539;SDS011;10931;52.164;5.518;2023-03-23T08:41:50;1.42;;;0.30;;
21539;SDS011;10931;52.164;5.518;2023-03-23T08:44:23;0.45;;;0.30;;
21539;SDS011;10931;52.164;5.518;2023-03-23T08:47:06;0.68;;;0.50;;
21539;SDS011;10931;52.164;5.518;2023-03-23T08:49:39;1.58;;;0.40;;
21539;SDS011;10931;52.164;5.518;2023-03-23T08:52:05;0.98;;;0.40;;
21539;SDS011;10931;52.164;5.518;2023-03-23T08:54:32;1.45;;;0.50;;
21539;SDS011;10931;52.164;5.518;2023-03-23T08:57:07;0.43;;;0.30;;
21539;SDS011;10931;52.164;5.518;2023-03-23T08:59:34;0.50;;;0.30;;
21539;SDS011;10931;52.164;5.518;2023-03-23T09:02:03;2.05;;;0.30;;
21539;SDS011;10931;52.164;5.518;2023-03-23T09:04:29;1.58;;;0.50;;
21539;SDS011;10931;52.164;5.518;2023-03-23T09:09:56;1.13;;;0.40;;
21539;SDS011;10931;52.164;5.518;2023-03-23T09:12:27;1.13;;;0.60;;
21539;SDS011;10931;52.164;5.518;2023-03-23T09:14:56;0.85;;;0.40;;
21539;SDS011;10931;52.164;5.518;2023-03-23T09:17:21;0.98;;;0.50;;
21539;SDS011;10931;52.164;5.518;2023-03-23T09:19:47;1.90;;;0.50;;
21539;SDS011;10931;52.164;5.518;2023-03-23T09:22:15;1.20;;;0.50;;
21539;SDS011;10931;52.164;5.518;2023-03-23T09:24:44;0.60;;;0.30;;
21539;SDS011;10931;52.164;5.518;2023-03-23T09:27:11;1.17;;;0.40;;
21539;SDS011;10931;52.164;5.518;2023-03-23T09:29:40;2.00;;;0.57;;
21539;SDS011;10931;52.164;5.518;2023-03-23T09:32:15;1.63;;;0.50;;
21539;SDS011;10931;52.164;5.518;2023-03-23T09:34:52;0.30;;;0.30;;
21539;SDS011;10931;52.164;5.518;2023-03-23T09:37:48;0.82;;;0.40;;
21539;SDS011;10931;52.164;5.518;2023-03-23T09:40:20;1.02;;;0.52;;
21539;SDS011;10931;52.164;5.518;2023-03-23T09:42:57;1.38;;;0.50;;
21539;SDS011;10931;52.164;5.518;2023-03-23T09:45:37;1.48;;;0.77;;
21539;SDS011;10931;52.164;5.518;2023-03-23T09:50:48;1.10;;;0.60;;
21539;SDS011;10931;52.164;5.518;2023-03-23T09:53:41;1.25;;;0.50;;
21539;SDS011;10931;52.164;5.518;2023-03-23T09:56:11;3.65;;;0.60;;
21539;SDS011;10931;52.164;5.518;2023-03-23T10:01:32;2.08;;;0.57;;
21539;SDS011;10931;52.164;5.518;2023-03-23T10:04:07;1.05;;;0.50;;
21539;SDS011;10931;52.164;5.518;2023-03-23T10:06:41;1.23;;;0.47;;
21539;SDS011;10931;52.164;5.518;2023-03-23T10:09:08;2.17;;;0.70;;
21539;SDS011;10931;52.164;5.518;2023-03-23T10:23:09;1.38;;;0.50;;
21539;SDS011;10931;52.164;5.518;2023-03-23T10:25:49;0.77;;;0.40;;
21539;SDS011;10931;52.164;5.518;2023-03-23T10:28:37;1.90;;;0.45;;
21539;SDS011;10931;52.164;5.518;2023-03-23T10:31:34;1.63;;;0.50;;
21539;SDS011;10931;52.164;5.518;2023-03-23T10:34:18;1.10;;;0.40;;
21539;SDS011;10931;52.164;5.518;2023-03-23T10:39:46;3.22;;;0.52;;
21539;SDS011;10931;52.164;5.518;2023-03-23T10:45:17;2.33;;;0.60;;
21539;SDS011;10931;52.164;5.518;2023-03-23T10:50:40;0.85;;;0.40;;
21539;SDS011;10931;52.164;5.518;2023-03-23T10:53:19;1.13;;;0.47;;
21539;SDS011;10931;52.164;5.518;2023-03-23T10:55:51;1.92;;;1.15;;
21539;SDS011;10931;52.164;5.518;2023-03-23T10:58:30;3.38;;;0.80;;
21539;SDS011;10931;52.164;5.518;2023-03-23T11:00:58;1.33;;;0.50;;
21539;SDS011;10931;52.164;5.518;2023-03-23T11:03:40;2.22;;;0.60;;
21539;SDS011;10931;52.164;5.518;2023-03-23T11:06:20;0.90;;;0.40;;
21539;SDS011;10931;52.164;5.518;2023-03-23T11:09:09;1.52;;;0.77;;
21539;SDS011;10931;52.164;5.518;2023-03-23T11:11:38;1.42;;;0.57;;
21539;SDS011;10931;52.164;5.518;2023-03-23T11:14:16;2.63;;;0.50;;
21539;SDS011;10931;52.164;5.518;2023-03-23T11:16:50;1.00;;;0.60;;
21539;SDS011;10931;52.164;5.518;2023-03-23T11:19:27;1.58;;;0.60;;
21539;SDS011;10931;52.164;5.518;2023-03-23T11:21:57;1.23;;;0.60;;
21539;SDS011;10931;52.164;5.518;2023-03-23T11:24:42;4.10;;;0.60;;
21539;SDS011;10931;52.164;5.518;2023-03-23T11:27:10;2.63;;;0.70;;
21539;SDS011;10931;52.164;5.518;2023-03-23T11:29:59;1.42;;;0.60;;
21539;SDS011;10931;52.164;5.518;2023-03-23T11:32:33;3.17;;;0.68;;
21539;SDS011;10931;52.164;5.518;2023-03-23T11:35:02;1.45;;;0.50;;
21539;SDS011;10931;52.164;5.518;2023-03-23T11:40:14;0.77;;;0.70;;
21539;SDS011;10931;52.164;5.518;2023-03-23T11:42:46;1.77;;;0.63;;
21539;SDS011;10931;52.164;5.518;2023-03-23T11:45:33;1.40;;;0.43;;
21539;SDS011;10931;52.164;5.518;2023-03-23T11:51:21;1.42;;;0.50;;
21539;SDS011;10931;52.164;5.518;2023-03-23T11:56:37;1.92;;;0.70;;
21539;SDS011;10931;52.164;5.518;2023-03-23T11:59:12;2.55;;;0.60;;
21539;SDS011;10931;52.164;5.518;2023-03-23T12:04:39;1.25;;;0.60;;
21539;SDS011;10931;52.164;5.518;2023-03-23T12:09:59;1.15;;;0.60;;
21539;SDS011;10931;52.164;5.518;2023-03-23T12:12:50;2.67;;;0.63;;
21539;SDS011;10931;52.164;5.518;2023-03-23T12:15:29;2.22;;;0.65;;
21539;SDS011;10931;52.164;5.518;2023-03-23T12:21:20;1.63;;;0.70;;
21539;SDS011;10931;52.164;5.518;2023-03-23T12:27:06;2.10;;;0.65;;
21539;SDS011;10931;52.164;5.518;2023-03-23T12:30:14;1.73;;;0.57;;
21539;SDS011;10931;52.164;5.518;2023-03-23T12:44:52;0.98;;;0.70;;
21539;SDS011;10931;52.164;5.518;2023-03-23T13:37:23;3.42;;;0.38;;
21539;SDS011;10931;52.164;5.518;2023-03-23T13:39:57;1.67;;;0.55;;
21539;SDS011;10931;52.164;5.518;2023-03-23T13:42:51;2.47;;;0.60;;
21539;SDS011;10931;52.164;5.518;2023-03-23T13:48:18;6.25;;;1.50;;
21539;SDS011;10931;52.164;5.518;2023-03-23T13:51:21;6.07;;;1.55;;
21539;SDS011;10931;52.164;5.518;2023-03-23T13:53:50;5.13;;;1.88;;
21539;SDS011;10931;52.164;5.518;2023-03-23T14:01:46;4.35;;;1.10;;
21539;SDS011;10931;52.164;5.518;2023-03-23T14:04:17;2.67;;;0.85;;
21539;SDS011;10931;52.164;5.518;2023-03-23T14:06:48;2.88;;;0.80;;
21539;SDS011;10931;52.164;5.518;2023-03-23T14:09:37;4.22;;;1.15;;
21539;SDS011;10931;52.164;5.518;2023-03-23T14:12:27;3.05;;;1.00;;
21539;SDS011;10931;52.164;5.518;2023-03-23T14:14:59;4.07;;;1.23;;
21539;SDS011;10931;52.164;5.518;2023-03-23T14:17:36;4.30;;;1.25;;
21539;SDS011;10931;52.164;5.518;2023-03-23T14:20:09;6.32;;;1.10;;
21539;SDS011;10931;52.164;5.518;2023-03-23T14:23:00;5.10;;;1.20;;
21539;SDS011;10931;52.164;5.518;2023-03-23T14:25:30;2.63;;;1.20;;
21539;SDS011;10931;52.164;5.518;2023-03-23T14:27:57;4.47;;;1.45;;
21539;SDS011;10931;52.164;5.518;2023-03-23T14:37:02;3.92;;;0.80;;
21539;SDS011;10931;52.164;5.518;2023-03-23T14:39:35;3.20;;;0.90;;
21539;SDS011;10931;52.164;5.518;2023-03-23T14:42:13;3.30;;;0.75;;
21539;SDS011;10931;52.164;5.518;2023-03-23T14:44:52;3.55;;;0.85;;
21539;SDS011;10931;52.164;5.518;2023-03-23T14:47:28;3.00;;;1.10;;
21539;SDS011;10931;52.164;5.518;2023-03-23T14:50:04;1.42;;;0.98;;
21539;SDS011;10931;52.164;5.518;2023-03-23T14:52:36;3.28;;;1.10;;
21539;SDS011;10931;52.164;5.518;2023-03-23T14:55:12;2.22;;;0.95;;
21539;SDS011;10931;52.164;5.518;2023-03-23T14:57:53;3.45;;;1.15;;
21539;SDS011;10931;52.164;5.518;2023-03-23T15:00:25;2.60;;;0.75;;
21539;SDS011;10931;52.164;5.518;2023-03-23T15:02:58;3.58;;;1.00;;
21539;SDS011;10931;52.164;5.518;2023-03-23T15:05:45;2.83;;;1.00;;
21539;SDS011;10931;52.164;5.518;2023-03-23T15:08:27;3.10;;;1.00;;
21539;SDS011;10931;52.164;5.518;2023-03-23T15:11:04;3.70;;;1.08;;
21539;SDS011;10931;52.164;5.518;2023-03-23T15:13:37;2.40;;;0.90;;
21539;SDS011;10931;52.164;5.518;2023-03-23T15:16:32;1.92;;;1.00;;
21539;SDS011;10931;52.164;5.518;2023-03-23T15:19:12;3.05;;;0.77;;
21539;SDS011;10931;52.164;5.518;2023-03-23T15:22:34;4.78;;;0.90;;
21539;SDS011;10931;52.164;5.518;2023-03-23T15:24:43;2.20;;;0.70;;
21539;SDS011;10931;52.164;5.518;2023-03-23T15:27:11;2.17;;;0.70;;
21539;SDS011;10931;52.164;5.518;2023-03-23T15:33:10;3.13;;;0.85;;
21539;SDS011;10931;52.164;5.518;2023-03-23T15:35:51;2.80;;;1.00;;
21539;SDS011;10931;52.164;5.518;2023-03-23T15:38:24;3.95;;;1.10;;
21539;SDS011;10931;52.164;5.518;2023-03-23T15:41:21;2.53;;;1.00;;
21539;SDS011;10931;52.164;5.518;2023-03-23T15:43:56;3.00;;;1.10;;
21539;SDS011;10931;52.164;5.518;2023-03-23T15:46:27;4.05;;;1.10;;
21539;SDS011;10931;52.164;5.518;2023-03-23T15:49:07;5.47;;;1.05;;
21539;SDS011;10931;52.164;5.518;2023-03-23T15:51:35;2.17;;;0.98;;
21539;SDS011;10931;52.164;5.518;2023-03-23T15:54:02;2.28;;;0.82;;
21539;SDS011;10931;52.164;5.518;2023-03-23T15:56:28;2.95;;;0.88;;
21539;SDS011;10931;52.164;5.518;2023-03-23T16:02:31;2.25;;;1.02;;
21539;SDS011;10931;52.164;5.518;2023-03-23T16:05:15;2.75;;;0.90;;
21539;SDS011;10931;52.164;5.518;2023-03-23T16:08:22;2.92;;;0.90;;
21539;SDS011;10931;52.164;5.518;2023-03-23T16:10:48;7.22;;;1.42;;
21539;SDS011;10931;52.164;5.518;2023-03-23T16:13:17;3.17;;;1.13;;
21539;SDS011;10931;52.164;5.518;2023-03-23T16:15:53;2.25;;;1.00;;
21539;SDS011;10931;52.164;5.518;2023-03-23T16:18:22;2.85;;;1.15;;
21539;SDS011;10931;52.164;5.518;2023-03-23T16:20:56;1.55;;;0.95;;
21539;SDS011;10931;52.164;5.518;2023-03-23T16:23:25;2.72;;;0.82;;
21539;SDS011;10931;52.164;5.518;2023-03-23T16:26:04;3.45;;;1.10;;
21539;SDS011;10931;52.164;5.518;2023-03-23T16:28:48;3.47;;;1.33;;
21539;SDS011;10931;52.164;5.518;2023-03-23T16:31:16;2.22;;;0.88;;
21539;SDS011;10931;52.164;5.518;2023-03-23T16:33:47;2.72;;;1.00;;
21539;SDS011;10931;52.164;5.518;2023-03-23T16:36:16;3.00;;;1.08;;
21539;SDS011;10931;52.164;5.518;2023-03-23T16:38:49;2.47;;;0.95;;
21539;SDS011;10931;52.164;5.518;2023-03-23T16:41:17;2.95;;;0.93;;
21539;SDS011;10931;52.164;5.518;2023-03-23T16:43:43;3.70;;;1.05;;
21539;SDS011;10931;52.164;5.518;2023-03-23T16:46:12;4.95;;;1.45;;
21539;SDS011;10931;52.164;5.518;2023-03-23T16:48:39;3.78;;;1.08;;
21539;SDS011;10931;52.164;5.518;2023-03-23T16:51:05;2.35;;;0.80;;
21539;SDS011;10931;52.164;5.518;2023-03-23T16:53:31;3.90;;;1.02;;
21539;SDS011;10931;52.164;5.518;2023-03-23T16:56:00;1.88;;;0.88;;
21539;SDS011;10931;52.164;5.518;2023-03-23T16:58:32;3.80;;;0.90;;
21539;SDS011;10931;52.164;5.518;2023-03-23T17:01:04;1.77;;;0.80;;
21539;SDS011;10931;52.164;5.518;2023-03-23T17:03:43;3.42;;;0.73;;
21539;SDS011;10931;52.164;5.518;2023-03-23T17:06:24;1.30;;;0.80;;
21539;SDS011;10931;52.164;5.518;2023-03-23T17:08:52;2.17;;;0.90;;
21539;SDS011;10931;52.164;5.518;2023-03-23T17:11:18;1.92;;;0.70;;
21539;SDS011;10931;52.164;5.518;2023-03-23T17:13:52;1.73;;;0.82;;
21539;SDS011;10931;52.164;5.518;2023-03-23T17:19:16;2.00;;;0.90;;
21539;SDS011;10931;52.164;5.518;2023-03-23T17:21:45;1.90;;;0.63;;
21539;SDS011;10931;52.164;5.518;2023-03-23T17:31:18;1.92;;;1.00;;
21539;SDS011;10931;52.164;5.518;2023-03-23T17:33:46;1.98;;;0.80;;
21539;SDS011;10931;52.164;5.518;2023-03-23T17:36:11;3.53;;;1.23;;
21539;SDS011;10931;52.164;5.518;2023-03-23T17:41:31;2.95;;;1.08;;
21539;SDS011;10931;52.164;5.518;2023-03-23T17:43:57;3.58;;;0.93;;
21539;SDS011;10931;52.164;5.518;2023-03-23T17:46:23;2.33;;;0.70;;
21539;SDS011;10931;52.164;5.518;2023-03-23T18:22:57;2.30;;;0.80;;
21539;SDS011;10931;52.164;5.518;2023-03-23T18:25:58;1.00;;;0.50;;
21539;SDS011;10931;52.164;5.518;2023-03-23T18:28:38;2.35;;;0.68;;
21539;SDS011;10931;52.164;5.518;2023-03-23T18:34:22;3.03;;;0.50;;
21539;SDS011;10931;52.164;5.518;2023-03-23T18:36:50;1.65;;;0.80;;
21539;SDS011;10931;52.164;5.518;2023-03-23T18:39:36;2.13;;;0.73;;
21539;SDS011;10931;52.164;5.518;2023-03-23T18:45:20;2.40;;;0.77;;
21539;SDS011;10931;52.164;5.518;2023-03-23T18:48:09;1.60;;;0.70;;
21539;SDS011;10931;52.164;5.518;2023-03-23T18:50:58;1.70;;;0.60;;
21539;SDS011;10931;52.164;5.518;2023-03-23T18:53:41;2.28;;;0.68;;
21539;SDS011;10931;52.164;5.518;2023-03-23T22:16:26;1.77;;;0.90;;
21539;SDS011;10931;52.164;5.518;2023-03-23T22:18:56;1.60;;;0.75;;
21539;SDS011;10931;52.164;5.518;2023-03-23T22:21:22;1.75;;;0.57;;
21539;SDS011;10931;52.164;5.518;2023-03-23T22:23:56;1.95;;;0.70;;
21539;SDS011;10931;52.164;5.518;2023-03-23T22:26:28;1.10;;;0.60;;
21539;SDS011;10931;52.164;5.518;2023-03-23T22:28:56;0.80;;;0.50;;